2020-10-21 - 21:49:00

SR: 0606 - SS: 1622

RWY: 25


OBSERVATION: n/a

RVR Mean 1 min: (Runway Visual Range)
A: P2000 - B: P2000 - C: P2000
RVR Mean 10 min:
A: P2000 - B: P2000 - C: P2000
WARNING: n/a
W25: 200-250(220-14kt) 08kt-24kt
W07: 190-260(230-14kt) 07kt-27kt
OTHER: n/a

QFE: (tatsächlicher Luftdruck) 999.5 hPa = 29.50 inHg
QNH:(Luftdruck auf Meereshöhe) 1005.3 hPa = 29.67 inHg
Temperatur: 18.4 °C
Dew point(Taupunkt): 12.2 °C

METAR:  00154 SPDL31 EDDG 212123 SPECI EDDG 212123Z 22020G35KT 180V260 9999 FEW040 19/12 Q1004 BECMG 21012KT= 
METAR (aus weather.noaa.gov):
2020/10/21 21:20 EDDG 212120Z 23021KT 200V260 9999 FEW040 19/12 Q1004 BECMG 21012KT

TAF (aus weather.noaa.gov):
2020/10/21 18:27 TAF EDDG 211700Z 2118/2218 21011KT 9999 FEW020 SCT040 TEMPO 2118/2121 20015G25KT TEMPO 2216/2218 SHRA BKN020CB
NOWCAST
304
FODL44 EDDG 212100
FODL44 EDDG 2010212105
# Nowcasting EDDG 21.10.2020 21:05 UTC
Parameter/Stunde22230001020304
Windrichtung220220220220220220220
Windgeschwindigkeit13131211111110
Böen--------------
Lufttemperatur18171717161615
Taupunkt12121212121212
Belagstemperatur16161515141414
Wetter-vorherrschend--------------
QNH1005100610071007100810081009
Wind in 5000 ft250/55250/50250/40250/40250/35240/35240/40
Wind in 3000 ft250/55250/50250/45250/40250/35240/35240/35
Wind in 2000 ft240/45240/45240/45240/40240/35240/35240/35
Wind in 1000 ft240/35230/35230/35230/30230/30230/30230/30